sensor_id;sensor_type;location;lat;lon;timestamp;P1;durP1;ratioP1;P2;durP2;ratioP2
25870;SDS011;13689;48.590;7.752;2023-03-03T00:01:05;79.60;;;30.67;;
25870;SDS011;13689;48.590;7.752;2023-03-03T00:03:31;78.85;;;30.48;;
25870;SDS011;13689;48.590;7.752;2023-03-03T00:05:57;81.20;;;32.03;;
25870;SDS011;13689;48.590;7.752;2023-03-03T00:08:24;82.00;;;31.85;;
25870;SDS011;13689;48.590;7.752;2023-03-03T00:10:50;83.30;;;31.33;;
25870;SDS011;13689;48.590;7.752;2023-03-03T00:13:21;81.70;;;31.92;;
25870;SDS011;13689;48.590;7.752;2023-03-03T00:15:49;79.65;;;30.15;;
25870;SDS011;13689;48.590;7.752;2023-03-03T00:21:01;80.13;;;30.42;;
25870;SDS011;13689;48.590;7.752;2023-03-03T00:23:34;81.43;;;32.90;;
25870;SDS011;13689;48.590;7.752;2023-03-03T00:26:03;71.70;;;29.83;;
25870;SDS011;13689;48.590;7.752;2023-03-03T00:28:47;83.82;;;30.52;;
25870;SDS011;13689;48.590;7.752;2023-03-03T00:31:18;79.50;;;32.25;;
25870;SDS011;13689;48.590;7.752;2023-03-03T00:33:50;80.05;;;30.27;;
25870;SDS011;13689;48.590;7.752;2023-03-03T00:39:10;77.63;;;28.55;;
25870;SDS011;13689;48.590;7.752;2023-03-03T00:41:42;71.97;;;28.50;;
25870;SDS011;13689;48.590;7.752;2023-03-03T00:46:53;73.70;;;29.40;;
25870;SDS011;13689;48.590;7.752;2023-03-03T00:49:21;80.53;;;28.42;;
25870;SDS011;13689;48.590;7.752;2023-03-03T00:51:51;81.50;;;28.98;;
25870;SDS011;13689;48.590;7.752;2023-03-03T00:54:28;76.45;;;30.05;;
25870;SDS011;13689;48.590;7.752;2023-03-03T00:56:54;77.22;;;30.60;;
25870;SDS011;13689;48.590;7.752;2023-03-03T00:59:20;81.32;;;30.35;;
25870;SDS011;13689;48.590;7.752;2023-03-03T01:01:46;82.25;;;28.65;;
25870;SDS011;13689;48.590;7.752;2023-03-03T01:04:12;75.55;;;30.48;;
25870;SDS011;13689;48.590;7.752;2023-03-03T01:06:37;77.50;;;30.08;;
25870;SDS011;13689;48.590;7.752;2023-03-03T01:09:03;79.53;;;30.60;;
25870;SDS011;13689;48.590;7.752;2023-03-03T01:11:28;83.38;;;31.15;;
25870;SDS011;13689;48.590;7.752;2023-03-03T01:13:54;79.78;;;29.95;;
25870;SDS011;13689;48.590;7.752;2023-03-03T01:16:20;78.95;;;31.30;;
25870;SDS011;13689;48.590;7.752;2023-03-03T01:18:46;77.53;;;30.33;;
25870;SDS011;13689;48.590;7.752;2023-03-03T01:21:11;77.25;;;31.48;;
25870;SDS011;13689;48.590;7.752;2023-03-03T01:23:37;87.78;;;30.90;;
25870;SDS011;13689;48.590;7.752;2023-03-03T01:26:03;85.20;;;30.75;;
25870;SDS011;13689;48.590;7.752;2023-03-03T01:28:29;77.60;;;30.55;;
25870;SDS011;13689;48.590;7.752;2023-03-03T01:31:00;76.18;;;29.08;;
25870;SDS011;13689;48.590;7.752;2023-03-03T01:33:26;73.05;;;28.60;;
25870;SDS011;13689;48.590;7.752;2023-03-03T01:35:52;71.95;;;30.42;;
25870;SDS011;13689;48.590;7.752;2023-03-03T01:38:17;78.45;;;30.25;;
25870;SDS011;13689;48.590;7.752;2023-03-03T01:40:48;73.90;;;29.80;;
25870;SDS011;13689;48.590;7.752;2023-03-03T01:43:17;75.68;;;29.48;;
25870;SDS011;13689;48.590;7.752;2023-03-03T01:46:18;72.40;;;29.40;;
25870;SDS011;13689;48.590;7.752;2023-03-03T01:51:00;78.03;;;28.58;;
25870;SDS011;13689;48.590;7.752;2023-03-03T01:53:32;76.65;;;28.52;;
25870;SDS011;13689;48.590;7.752;2023-03-03T01:56:01;75.53;;;29.25;;
25870;SDS011;13689;48.590;7.752;2023-03-03T01:58:36;79.93;;;29.30;;
25870;SDS011;13689;48.590;7.752;2023-03-03T02:01:23;74.50;;;28.17;;
25870;SDS011;13689;48.590;7.752;2023-03-03T02:03:51;76.15;;;29.27;;
25870;SDS011;13689;48.590;7.752;2023-03-03T02:06:24;79.03;;;29.25;;
25870;SDS011;13689;48.590;7.752;2023-03-03T02:08:58;78.80;;;28.60;;
25870;SDS011;13689;48.590;7.752;2023-03-03T02:11:35;77.78;;;28.33;;
25870;SDS011;13689;48.590;7.752;2023-03-03T02:14:03;54.50;;;21.33;;
25870;SDS011;13689;48.590;7.752;2023-03-03T02:16:28;78.97;;;31.00;;
25870;SDS011;13689;48.590;7.752;2023-03-03T02:18:54;70.82;;;28.02;;
25870;SDS011;13689;48.590;7.752;2023-03-03T02:21:20;76.03;;;28.73;;
25870;SDS011;13689;48.590;7.752;2023-03-03T02:26:36;64.10;;;24.10;;
25870;SDS011;13689;48.590;7.752;2023-03-03T02:29:05;65.82;;;25.85;;
25870;SDS011;13689;48.590;7.752;2023-03-03T02:31:31;70.78;;;26.85;;
25870;SDS011;13689;48.590;7.752;2023-03-03T02:33:57;59.80;;;23.08;;
25870;SDS011;13689;48.590;7.752;2023-03-03T02:36:27;73.03;;;27.58;;
25870;SDS011;13689;48.590;7.752;2023-03-03T02:44:20;66.80;;;27.55;;
25870;SDS011;13689;48.590;7.752;2023-03-03T02:46:49;74.63;;;27.95;;
25870;SDS011;13689;48.590;7.752;2023-03-03T02:49:26;71.13;;;29.05;;
25870;SDS011;13689;48.590;7.752;2023-03-03T02:51:55;74.22;;;28.30;;
25870;SDS011;13689;48.590;7.752;2023-03-03T02:54:21;79.05;;;29.05;;
25870;SDS011;13689;48.590;7.752;2023-03-03T02:59:15;68.75;;;25.83;;
25870;SDS011;13689;48.590;7.752;2023-03-03T03:01:41;74.40;;;28.83;;
25870;SDS011;13689;48.590;7.752;2023-03-03T03:04:08;72.30;;;28.13;;
25870;SDS011;13689;48.590;7.752;2023-03-03T03:06:36;68.88;;;28.02;;
25870;SDS011;13689;48.590;7.752;2023-03-03T03:09:02;73.88;;;28.33;;
25870;SDS011;13689;48.590;7.752;2023-03-03T03:11:29;84.27;;;30.43;;
25870;SDS011;13689;48.590;7.752;2023-03-03T03:13:55;77.78;;;29.73;;
25870;SDS011;13689;48.590;7.752;2023-03-03T03:16:21;77.90;;;29.63;;
25870;SDS011;13689;48.590;7.752;2023-03-03T03:18:47;83.18;;;29.90;;
25870;SDS011;13689;48.590;7.752;2023-03-03T03:21:14;85.55;;;29.88;;
25870;SDS011;13689;48.590;7.752;2023-03-03T03:23:40;85.90;;;30.65;;
25870;SDS011;13689;48.590;7.752;2023-03-03T03:26:06;80.60;;;29.70;;
25870;SDS011;13689;48.590;7.752;2023-03-03T03:28:33;76.25;;;29.85;;
25870;SDS011;13689;48.590;7.752;2023-03-03T03:30:59;81.78;;;29.77;;
25870;SDS011;13689;48.590;7.752;2023-03-03T03:33:25;81.65;;;32.28;;
25870;SDS011;13689;48.590;7.752;2023-03-03T03:35:52;58.35;;;22.88;;
25870;SDS011;13689;48.590;7.752;2023-03-03T03:38:19;77.50;;;30.48;;
25870;SDS011;13689;48.590;7.752;2023-03-03T03:40:46;73.90;;;29.92;;
25870;SDS011;13689;48.590;7.752;2023-03-03T03:43:11;71.00;;;28.48;;
25870;SDS011;13689;48.590;7.752;2023-03-03T03:45:37;76.95;;;29.10;;
25870;SDS011;13689;48.590;7.752;2023-03-03T03:48:03;76.28;;;28.98;;
25870;SDS011;13689;48.590;7.752;2023-03-03T03:50:29;78.43;;;28.80;;
25870;SDS011;13689;48.590;7.752;2023-03-03T03:52:54;73.43;;;29.48;;
25870;SDS011;13689;48.590;7.752;2023-03-03T03:55:20;77.72;;;28.02;;
25870;SDS011;13689;48.590;7.752;2023-03-03T03:57:46;73.43;;;29.00;;
25870;SDS011;13689;48.590;7.752;2023-03-03T04:00:12;75.10;;;30.65;;
25870;SDS011;13689;48.590;7.752;2023-03-03T04:02:38;81.57;;;30.60;;
25870;SDS011;13689;48.590;7.752;2023-03-03T04:05:04;74.43;;;28.88;;
25870;SDS011;13689;48.590;7.752;2023-03-03T04:07:31;80.60;;;31.45;;
25870;SDS011;13689;48.590;7.752;2023-03-03T04:09:56;77.38;;;29.35;;
25870;SDS011;13689;48.590;7.752;2023-03-03T04:12:22;83.22;;;30.23;;
25870;SDS011;13689;48.590;7.752;2023-03-03T04:14:48;80.13;;;29.50;;
25870;SDS011;13689;48.590;7.752;2023-03-03T04:17:17;80.35;;;29.27;;
25870;SDS011;13689;48.590;7.752;2023-03-03T04:19:44;77.28;;;28.33;;
25870;SDS011;13689;48.590;7.752;2023-03-03T04:22:11;73.80;;;27.83;;
25870;SDS011;13689;48.590;7.752;2023-03-03T04:24:39;54.55;;;20.92;;
25870;SDS011;13689;48.590;7.752;2023-03-03T04:27:05;83.40;;;28.58;;
25870;SDS011;13689;48.590;7.752;2023-03-03T04:29:32;52.97;;;21.92;;
25870;SDS011;13689;48.590;7.752;2023-03-03T04:31:58;70.18;;;27.80;;
25870;SDS011;13689;48.590;7.752;2023-03-03T04:34:24;77.05;;;28.33;;
25870;SDS011;13689;48.590;7.752;2023-03-03T04:36:49;78.57;;;28.30;;
25870;SDS011;13689;48.590;7.752;2023-03-03T04:39:15;74.38;;;28.52;;
25870;SDS011;13689;48.590;7.752;2023-03-03T04:41:41;82.65;;;31.20;;
25870;SDS011;13689;48.590;7.752;2023-03-03T04:44:06;74.60;;;28.45;;
25870;SDS011;13689;48.590;7.752;2023-03-03T04:46:32;77.07;;;29.02;;
25870;SDS011;13689;48.590;7.752;2023-03-03T04:48:58;82.00;;;29.77;;
25870;SDS011;13689;48.590;7.752;2023-03-03T04:51:23;69.05;;;27.75;;
25870;SDS011;13689;48.590;7.752;2023-03-03T04:53:49;74.70;;;29.08;;
25870;SDS011;13689;48.590;7.752;2023-03-03T04:56:15;77.15;;;28.83;;
25870;SDS011;13689;48.590;7.752;2023-03-03T04:58:40;71.50;;;27.92;;
25870;SDS011;13689;48.590;7.752;2023-03-03T05:01:06;82.55;;;28.40;;
25870;SDS011;13689;48.590;7.752;2023-03-03T05:03:32;84.82;;;30.50;;
25870;SDS011;13689;48.590;7.752;2023-03-03T05:05:58;73.85;;;27.08;;
25870;SDS011;13689;48.590;7.752;2023-03-03T05:08:23;77.68;;;29.45;;
25870;SDS011;13689;48.590;7.752;2023-03-03T05:10:52;72.50;;;27.13;;
25870;SDS011;13689;48.590;7.752;2023-03-03T05:13:19;74.50;;;26.55;;
25870;SDS011;13689;48.590;7.752;2023-03-03T05:15:52;76.75;;;28.05;;
25870;SDS011;13689;48.590;7.752;2023-03-03T05:18:22;67.30;;;26.67;;
25870;SDS011;13689;48.590;7.752;2023-03-03T05:20:48;83.68;;;28.25;;
25870;SDS011;13689;48.590;7.752;2023-03-03T05:23:15;74.90;;;28.97;;
25870;SDS011;13689;48.590;7.752;2023-03-03T05:25:41;73.82;;;27.27;;
25870;SDS011;13689;48.590;7.752;2023-03-03T05:28:08;80.70;;;29.50;;
25870;SDS011;13689;48.590;7.752;2023-03-03T05:30:34;52.22;;;20.35;;
25870;SDS011;13689;48.590;7.752;2023-03-03T05:33:01;70.70;;;25.85;;
25870;SDS011;13689;48.590;7.752;2023-03-03T05:35:27;73.65;;;26.70;;
25870;SDS011;13689;48.590;7.752;2023-03-03T05:37:53;68.70;;;26.80;;
25870;SDS011;13689;48.590;7.752;2023-03-03T05:40:19;79.85;;;28.30;;
25870;SDS011;13689;48.590;7.752;2023-03-03T05:42:45;72.53;;;26.33;;
25870;SDS011;13689;48.590;7.752;2023-03-03T05:45:11;80.35;;;27.48;;
25870;SDS011;13689;48.590;7.752;2023-03-03T05:47:37;69.32;;;27.40;;
25870;SDS011;13689;48.590;7.752;2023-03-03T05:50:03;71.90;;;28.25;;
25870;SDS011;13689;48.590;7.752;2023-03-03T05:52:29;78.55;;;29.77;;
25870;SDS011;13689;48.590;7.752;2023-03-03T05:54:55;71.18;;;27.35;;
25870;SDS011;13689;48.590;7.752;2023-03-03T05:57:21;79.30;;;28.98;;
25870;SDS011;13689;48.590;7.752;2023-03-03T05:59:47;79.85;;;28.58;;
25870;SDS011;13689;48.590;7.752;2023-03-03T06:02:13;68.90;;;26.90;;
25870;SDS011;13689;48.590;7.752;2023-03-03T06:04:39;68.63;;;25.55;;
25870;SDS011;13689;48.590;7.752;2023-03-03T06:07:05;79.40;;;29.75;;
25870;SDS011;13689;48.590;7.752;2023-03-03T06:09:31;71.40;;;26.58;;
25870;SDS011;13689;48.590;7.752;2023-03-03T06:11:57;71.07;;;27.88;;
25870;SDS011;13689;48.590;7.752;2023-03-03T06:14:23;66.28;;;24.75;;
25870;SDS011;13689;48.590;7.752;2023-03-03T06:16:49;68.72;;;26.92;;
25870;SDS011;13689;48.590;7.752;2023-03-03T06:19:15;72.53;;;26.30;;
25870;SDS011;13689;48.590;7.752;2023-03-03T06:21:41;73.20;;;26.77;;
25870;SDS011;13689;48.590;7.752;2023-03-03T06:24:06;67.70;;;26.33;;
25870;SDS011;13689;48.590;7.752;2023-03-03T06:26:32;61.25;;;23.83;;
25870;SDS011;13689;48.590;7.752;2023-03-03T06:28:58;60.58;;;24.27;;
25870;SDS011;13689;48.590;7.752;2023-03-03T06:31:26;65.75;;;25.05;;
25870;SDS011;13689;48.590;7.752;2023-03-03T06:33:52;62.92;;;24.85;;
25870;SDS011;13689;48.590;7.752;2023-03-03T06:36:18;58.63;;;23.63;;
25870;SDS011;13689;48.590;7.752;2023-03-03T06:38:44;65.45;;;25.95;;
25870;SDS011;13689;48.590;7.752;2023-03-03T06:41:10;67.28;;;25.38;;
25870;SDS011;13689;48.590;7.752;2023-03-03T06:43:36;63.22;;;25.42;;
25870;SDS011;13689;48.590;7.752;2023-03-03T06:46:03;61.97;;;24.60;;
25870;SDS011;13689;48.590;7.752;2023-03-03T06:48:29;63.85;;;25.02;;
25870;SDS011;13689;48.590;7.752;2023-03-03T06:50:56;63.92;;;25.25;;
25870;SDS011;13689;48.590;7.752;2023-03-03T06:53:26;68.32;;;25.08;;
25870;SDS011;13689;48.590;7.752;2023-03-03T06:55:53;67.88;;;24.25;;
25870;SDS011;13689;48.590;7.752;2023-03-03T06:58:21;62.67;;;24.40;;
25870;SDS011;13689;48.590;7.752;2023-03-03T07:00:58;59.03;;;24.98;;
25870;SDS011;13689;48.590;7.752;2023-03-03T07:03:25;78.82;;;26.83;;
25870;SDS011;13689;48.590;7.752;2023-03-03T07:05:56;68.75;;;26.23;;
25870;SDS011;13689;48.590;7.752;2023-03-03T07:08:23;66.13;;;25.23;;
25870;SDS011;13689;48.590;7.752;2023-03-03T07:10:49;68.20;;;25.30;;
25870;SDS011;13689;48.590;7.752;2023-03-03T07:15:51;68.45;;;26.00;;
25870;SDS011;13689;48.590;7.752;2023-03-03T07:20:46;70.18;;;26.38;;
25870;SDS011;13689;48.590;7.752;2023-03-03T07:26:16;63.33;;;24.33;;
25870;SDS011;13689;48.590;7.752;2023-03-03T07:28:52;70.38;;;26.35;;
25870;SDS011;13689;48.590;7.752;2023-03-03T07:31:40;70.63;;;27.23;;
25870;SDS011;13689;48.590;7.752;2023-03-03T07:34:16;75.10;;;28.23;;
25870;SDS011;13689;48.590;7.752;2023-03-03T07:36:46;71.65;;;26.90;;
25870;SDS011;13689;48.590;7.752;2023-03-03T07:42:20;79.60;;;28.67;;
25870;SDS011;13689;48.590;7.752;2023-03-03T07:44:56;77.10;;;26.85;;
25870;SDS011;13689;48.590;7.752;2023-03-03T07:47:30;77.63;;;28.38;;
25870;SDS011;13689;48.590;7.752;2023-03-03T07:50:07;72.78;;;28.25;;
25870;SDS011;13689;48.590;7.752;2023-03-03T07:52:42;71.00;;;29.20;;
25870;SDS011;13689;48.590;7.752;2023-03-03T07:55:26;78.80;;;29.77;;
25870;SDS011;13689;48.590;7.752;2023-03-03T07:57:55;82.13;;;29.27;;
25870;SDS011;13689;48.590;7.752;2023-03-03T08:03:50;87.97;;;33.53;;
25870;SDS011;13689;48.590;7.752;2023-03-03T08:11:36;78.35;;;30.77;;
25870;SDS011;13689;48.590;7.752;2023-03-03T08:14:26;80.75;;;32.72;;
25870;SDS011;13689;48.590;7.752;2023-03-03T08:16:55;71.95;;;29.77;;
25870;SDS011;13689;48.590;7.752;2023-03-03T08:19:21;71.40;;;27.40;;
25870;SDS011;13689;48.590;7.752;2023-03-03T08:21:47;73.85;;;28.98;;
25870;SDS011;13689;48.590;7.752;2023-03-03T08:24:13;70.07;;;27.20;;
25870;SDS011;13689;48.590;7.752;2023-03-03T08:26:39;67.18;;;27.23;;
25870;SDS011;13689;48.590;7.752;2023-03-03T08:29:04;78.45;;;28.02;;
25870;SDS011;13689;48.590;7.752;2023-03-03T08:31:30;72.50;;;26.23;;
25870;SDS011;13689;48.590;7.752;2023-03-03T08:33:55;65.90;;;25.23;;
25870;SDS011;13689;48.590;7.752;2023-03-03T08:36:22;52.22;;;23.42;;
25870;SDS011;13689;48.590;7.752;2023-03-03T08:38:48;58.65;;;23.75;;
25870;SDS011;13689;48.590;7.752;2023-03-03T08:41:14;52.88;;;20.15;;
25870;SDS011;13689;48.590;7.752;2023-03-03T08:43:39;49.70;;;20.92;;
25870;SDS011;13689;48.590;7.752;2023-03-03T08:46:05;51.03;;;20.98;;
25870;SDS011;13689;48.590;7.752;2023-03-03T08:48:34;37.95;;;18.65;;
25870;SDS011;13689;48.590;7.752;2023-03-03T08:51:00;51.92;;;20.13;;
25870;SDS011;13689;48.590;7.752;2023-03-03T08:53:26;55.03;;;21.15;;
25870;SDS011;13689;48.590;7.752;2023-03-03T08:55:52;52.33;;;21.70;;
25870;SDS011;13689;48.590;7.752;2023-03-03T08:58:18;51.47;;;20.42;;
25870;SDS011;13689;48.590;7.752;2023-03-03T09:00:45;45.53;;;20.42;;
25870;SDS011;13689;48.590;7.752;2023-03-03T09:03:11;51.35;;;20.05;;
25870;SDS011;13689;48.590;7.752;2023-03-03T09:05:37;51.58;;;20.48;;
25870;SDS011;13689;48.590;7.752;2023-03-03T09:08:04;45.85;;;21.35;;
25870;SDS011;13689;48.590;7.752;2023-03-03T09:10:31;45.93;;;17.10;;
25870;SDS011;13689;48.590;7.752;2023-03-03T09:12:57;46.38;;;19.80;;
25870;SDS011;13689;48.590;7.752;2023-03-03T09:15:29;45.42;;;19.17;;
25870;SDS011;13689;48.590;7.752;2023-03-03T09:20:42;54.35;;;21.20;;
25870;SDS011;13689;48.590;7.752;2023-03-03T09:25:55;52.08;;;21.55;;
25870;SDS011;13689;48.590;7.752;2023-03-03T09:28:24;47.63;;;19.98;;
25870;SDS011;13689;48.590;7.752;2023-03-03T09:30:52;49.38;;;19.77;;
25870;SDS011;13689;48.590;7.752;2023-03-03T09:38:43;49.25;;;20.95;;
25870;SDS011;13689;48.590;7.752;2023-03-03T09:41:14;47.78;;;20.33;;
25870;SDS011;13689;48.590;7.752;2023-03-03T09:43:59;46.55;;;19.13;;
25870;SDS011;13689;48.590;7.752;2023-03-03T09:54:50;49.97;;;20.45;;
25870;SDS011;13689;48.590;7.752;2023-03-03T09:57:23;48.58;;;18.80;;
25870;SDS011;13689;48.590;7.752;2023-03-03T10:05:13;41.22;;;19.13;;
25870;SDS011;13689;48.590;7.752;2023-03-03T10:08:17;46.10;;;19.50;;
25870;SDS011;13689;48.590;7.752;2023-03-03T10:11:03;49.63;;;19.60;;
25870;SDS011;13689;48.590;7.752;2023-03-03T10:13:51;38.83;;;18.98;;
25870;SDS011;13689;48.590;7.752;2023-03-03T10:27:59;44.45;;;18.92;;
25870;SDS011;13689;48.590;7.752;2023-03-03T10:40:49;38.40;;;19.27;;
25870;SDS011;13689;48.590;7.752;2023-03-03T10:49:13;35.80;;;17.40;;
25870;SDS011;13689;48.590;7.752;2023-03-03T10:52:11;41.05;;;19.67;;
25870;SDS011;13689;48.590;7.752;2023-03-03T11:03:54;40.78;;;18.95;;
25870;SDS011;13689;48.590;7.752;2023-03-03T11:09:36;32.05;;;17.10;;
25870;SDS011;13689;48.590;7.752;2023-03-03T11:12:40;34.60;;;16.25;;
25870;SDS011;13689;48.590;7.752;2023-03-03T11:18:51;39.85;;;18.15;;
25870;SDS011;13689;48.590;7.752;2023-03-03T11:21:31;39.20;;;17.73;;
25870;SDS011;13689;48.590;7.752;2023-03-03T11:24:24;36.67;;;17.55;;
25870;SDS011;13689;48.590;7.752;2023-03-03T11:33:22;41.33;;;18.30;;
25870;SDS011;13689;48.590;7.752;2023-03-03T11:36:22;34.13;;;16.27;;
25870;SDS011;13689;48.590;7.752;2023-03-03T11:38:58;34.83;;;16.92;;
25870;SDS011;13689;48.590;7.752;2023-03-03T11:44:20;37.42;;;17.40;;
25870;SDS011;13689;48.590;7.752;2023-03-03T11:46:57;32.35;;;14.07;;
25870;SDS011;13689;48.590;7.752;2023-03-03T11:49:49;39.35;;;17.48;;
25870;SDS011;13689;48.590;7.752;2023-03-03T11:52:30;50.38;;;18.25;;
25870;SDS011;13689;48.590;7.752;2023-03-03T11:55:13;49.53;;;19.85;;
25870;SDS011;13689;48.590;7.752;2023-03-03T11:57:49;43.05;;;16.65;;
25870;SDS011;13689;48.590;7.752;2023-03-03T12:00:44;45.78;;;17.52;;
25870;SDS011;13689;48.590;7.752;2023-03-03T12:11:26;52.08;;;21.23;;
25870;SDS011;13689;48.590;7.752;2023-03-03T12:13:55;48.60;;;20.48;;
25870;SDS011;13689;48.590;7.752;2023-03-03T12:22:33;47.03;;;20.23;;
25870;SDS011;13689;48.590;7.752;2023-03-03T12:25:12;53.05;;;20.85;;
25870;SDS011;13689;48.590;7.752;2023-03-03T12:28:14;42.13;;;19.00;;
25870;SDS011;13689;48.590;7.752;2023-03-03T12:30:48;54.05;;;21.75;;
25870;SDS011;13689;48.590;7.752;2023-03-03T12:36:28;43.90;;;19.17;;
25870;SDS011;13689;48.590;7.752;2023-03-03T12:41:53;41.83;;;19.08;;
25870;SDS011;13689;48.590;7.752;2023-03-03T12:47:28;42.03;;;17.77;;
25870;SDS011;13689;48.590;7.752;2023-03-03T12:52:41;54.15;;;22.10;;
25870;SDS011;13689;48.590;7.752;2023-03-03T12:55:16;47.92;;;18.85;;
25870;SDS011;13689;48.590;7.752;2023-03-03T12:57:57;36.13;;;14.20;;
25870;SDS011;13689;48.590;7.752;2023-03-03T13:00:50;50.05;;;20.88;;
25870;SDS011;13689;48.590;7.752;2023-03-03T13:26:21;46.15;;;20.80;;
25870;SDS011;13689;48.590;7.752;2023-03-03T13:29:12;44.00;;;19.77;;
25870;SDS011;13689;48.590;7.752;2023-03-03T13:31:48;45.70;;;20.42;;
25870;SDS011;13689;48.590;7.752;2023-03-03T13:34:22;45.35;;;20.42;;
25870;SDS011;13689;48.590;7.752;2023-03-03T13:40:05;51.88;;;18.55;;
25870;SDS011;13689;48.590;7.752;2023-03-03T13:45:22;38.60;;;18.20;;
25870;SDS011;13689;48.590;7.752;2023-03-03T13:50:47;43.33;;;19.48;;
25870;SDS011;13689;48.590;7.752;2023-03-03T13:59:11;37.83;;;16.80;;
25870;SDS011;13689;48.590;7.752;2023-03-03T14:04:53;38.83;;;16.77;;
25870;SDS011;13689;48.590;7.752;2023-03-03T14:07:26;34.38;;;16.30;;
25870;SDS011;13689;48.590;7.752;2023-03-03T14:20:53;41.30;;;17.35;;
25870;SDS011;13689;48.590;7.752;2023-03-03T14:26:21;37.00;;;16.67;;
25870;SDS011;13689;48.590;7.752;2023-03-03T14:28:47;38.03;;;16.20;;
25870;SDS011;13689;48.590;7.752;2023-03-03T14:33:42;38.42;;;16.98;;
25870;SDS011;13689;48.590;7.752;2023-03-03T14:36:12;45.10;;;17.52;;
25870;SDS011;13689;48.590;7.752;2023-03-03T14:38:40;41.17;;;16.80;;
25870;SDS011;13689;48.590;7.752;2023-03-03T14:46:50;41.05;;;17.50;;
25870;SDS011;13689;48.590;7.752;2023-03-03T14:48:54;37.75;;;16.75;;
25870;SDS011;13689;48.590;7.752;2023-03-03T14:51:28;44.88;;;17.65;;
25870;SDS011;13689;48.590;7.752;2023-03-03T14:53:56;53.20;;;19.55;;
25870;SDS011;13689;48.590;7.752;2023-03-03T15:01:41;37.97;;;17.45;;
25870;SDS011;13689;48.590;7.752;2023-03-03T15:06:40;35.40;;;16.50;;
25870;SDS011;13689;48.590;7.752;2023-03-03T15:12:00;44.25;;;16.80;;
25870;SDS011;13689;48.590;7.752;2023-03-03T15:14:30;43.17;;;18.30;;
25870;SDS011;13689;48.590;7.752;2023-03-03T15:25:27;43.60;;;16.45;;
25870;SDS011;13689;48.590;7.752;2023-03-03T15:30:58;38.13;;;17.05;;
25870;SDS011;13689;48.590;7.752;2023-03-03T15:44:25;41.78;;;17.25;;
25870;SDS011;13689;48.590;7.752;2023-03-03T16:04:54;37.65;;;15.68;;
25870;SDS011;13689;48.590;7.752;2023-03-03T16:08:09;42.75;;;16.48;;
25870;SDS011;13689;48.590;7.752;2023-03-03T16:13:50;40.55;;;15.55;;
25870;SDS011;13689;48.590;7.752;2023-03-03T16:21:59;38.25;;;17.05;;
25870;SDS011;13689;48.590;7.752;2023-03-03T16:27:23;41.60;;;15.27;;
25870;SDS011;13689;48.590;7.752;2023-03-03T16:35:36;44.83;;;16.83;;
25870;SDS011;13689;48.590;7.752;2023-03-03T16:38:11;46.38;;;18.10;;
25870;SDS011;13689;48.590;7.752;2023-03-03T16:41:00;40.85;;;16.52;;
25870;SDS011;13689;48.590;7.752;2023-03-03T16:44:03;40.50;;;18.23;;
25870;SDS011;13689;48.590;7.752;2023-03-03T16:46:34;40.00;;;17.45;;
25870;SDS011;13689;48.590;7.752;2023-03-03T16:54:48;46.97;;;19.00;;
25870;SDS011;13689;48.590;7.752;2023-03-03T16:57:30;44.08;;;18.77;;
25870;SDS011;13689;48.590;7.752;2023-03-03T17:16:59;49.88;;;19.58;;
25870;SDS011;13689;48.590;7.752;2023-03-03T17:22:23;44.33;;;17.45;;
25870;SDS011;13689;48.590;7.752;2023-03-03T17:42:03;44.20;;;18.67;;
25870;SDS011;13689;48.590;7.752;2023-03-03T17:45:09;45.08;;;16.92;;
25870;SDS011;13689;48.590;7.752;2023-03-03T17:50:29;52.60;;;19.90;;
25870;SDS011;13689;48.590;7.752;2023-03-03T17:55:42;47.42;;;18.63;;
25870;SDS011;13689;48.590;7.752;2023-03-03T18:26:27;64.57;;;24.38;;
25870;SDS011;13689;48.590;7.752;2023-03-03T18:36:56;54.38;;;21.52;;
25870;SDS011;13689;48.590;7.752;2023-03-03T18:39:38;62.60;;;23.25;;
25870;SDS011;13689;48.590;7.752;2023-03-03T18:44:47;61.75;;;24.45;;
25870;SDS011;13689;48.590;7.752;2023-03-03T18:47:15;58.10;;;23.33;;
25870;SDS011;13689;48.590;7.752;2023-03-03T18:57:37;60.03;;;24.25;;
25870;SDS011;13689;48.590;7.752;2023-03-03T19:00:21;62.35;;;25.55;;
25870;SDS011;13689;48.590;7.752;2023-03-03T19:02:52;64.38;;;24.10;;
25870;SDS011;13689;48.590;7.752;2023-03-03T19:05:24;58.00;;;23.08;;
25870;SDS011;13689;48.590;7.752;2023-03-03T19:08:15;56.35;;;23.15;;
25870;SDS011;13689;48.590;7.752;2023-03-03T19:10:49;63.97;;;24.25;;
25870;SDS011;13689;48.590;7.752;2023-03-03T19:15:59;64.65;;;25.67;;
25870;SDS011;13689;48.590;7.752;2023-03-03T19:29:02;68.03;;;23.52;;
25870;SDS011;13689;48.590;7.752;2023-03-03T19:34:27;58.60;;;21.92;;
25870;SDS011;13689;48.590;7.752;2023-03-03T19:43:05;57.78;;;21.50;;
25870;SDS011;13689;48.590;7.752;2023-03-03T19:48:37;59.10;;;21.30;;
25870;SDS011;13689;48.590;7.752;2023-03-03T19:51:33;48.22;;;18.95;;
25870;SDS011;13689;48.590;7.752;2023-03-03T19:57:01;54.55;;;21.25;;
25870;SDS011;13689;48.590;7.752;2023-03-03T20:04:53;53.13;;;20.23;;
25870;SDS011;13689;48.590;7.752;2023-03-03T20:07:39;52.70;;;20.02;;
25870;SDS011;13689;48.590;7.752;2023-03-03T20:16:11;53.30;;;20.45;;
25870;SDS011;13689;48.590;7.752;2023-03-03T20:21:33;50.42;;;18.60;;
25870;SDS011;13689;48.590;7.752;2023-03-03T20:26:59;45.85;;;17.85;;
25870;SDS011;13689;48.590;7.752;2023-03-03T20:49:00;38.67;;;14.35;;
25870;SDS011;13689;48.590;7.752;2023-03-03T20:54:44;34.03;;;13.15;;
25870;SDS011;13689;48.590;7.752;2023-03-03T20:57:27;37.92;;;14.38;;
25870;SDS011;13689;48.590;7.752;2023-03-03T21:03:02;37.55;;;14.25;;
25870;SDS011;13689;48.590;7.752;2023-03-03T21:05:52;36.72;;;14.73;;
25870;SDS011;13689;48.590;7.752;2023-03-03T21:11:39;34.45;;;14.82;;
25870;SDS011;13689;48.590;7.752;2023-03-03T21:14:21;39.38;;;15.70;;
25870;SDS011;13689;48.590;7.752;2023-03-03T21:16:51;38.63;;;15.68;;
25870;SDS011;13689;48.590;7.752;2023-03-03T21:19:26;41.40;;;15.48;;
25870;SDS011;13689;48.590;7.752;2023-03-03T21:22:00;39.75;;;15.90;;
25870;SDS011;13689;48.590;7.752;2023-03-03T21:30:04;31.67;;;11.70;;
25870;SDS011;13689;48.590;7.752;2023-03-03T21:32:40;39.55;;;14.85;;
25870;SDS011;13689;48.590;7.752;2023-03-03T21:35:10;47.40;;;16.83;;
25870;SDS011;13689;48.590;7.752;2023-03-03T21:37:47;50.10;;;17.45;;
25870;SDS011;13689;48.590;7.752;2023-03-03T21:40:24;38.92;;;16.10;;
25870;SDS011;13689;48.590;7.752;2023-03-03T21:42:56;44.92;;;17.02;;
25870;SDS011;13689;48.590;7.752;2023-03-03T21:45:24;42.28;;;17.50;;
25870;SDS011;13689;48.590;7.752;2023-03-03T21:47:50;47.60;;;17.73;;
25870;SDS011;13689;48.590;7.752;2023-03-03T21:50:22;48.03;;;17.05;;
25870;SDS011;13689;48.590;7.752;2023-03-03T21:52:48;46.83;;;17.50;;
25870;SDS011;13689;48.590;7.752;2023-03-03T21:55:14;49.85;;;18.58;;
25870;SDS011;13689;48.590;7.752;2023-03-03T21:57:40;44.03;;;17.52;;
25870;SDS011;13689;48.590;7.752;2023-03-03T22:00:06;47.30;;;18.13;;
25870;SDS011;13689;48.590;7.752;2023-03-03T22:02:35;40.45;;;17.25;;
25870;SDS011;13689;48.590;7.752;2023-03-03T22:05:00;39.08;;;16.35;;
25870;SDS011;13689;48.590;7.752;2023-03-03T22:07:27;45.58;;;17.25;;
25870;SDS011;13689;48.590;7.752;2023-03-03T22:09:53;46.65;;;16.80;;
25870;SDS011;13689;48.590;7.752;2023-03-03T22:12:19;45.67;;;17.77;;